sensor_id;sensor_type;location;lat;lon;timestamp;pressure;altitude;pressure_sealevel;temperature
15062;BMP180;7630;50.306;8.566;2024-03-02T00:03:57;96619.00;;;9.40
15062;BMP180;7630;50.306;8.566;2024-03-02T00:07:58;96610.00;;;9.40
15062;BMP180;7630;50.306;8.566;2024-03-02T00:12:00;96609.00;;;9.70
15062;BMP180;7630;50.306;8.566;2024-03-02T00:16:01;96614.00;;;9.60
15062;BMP180;7630;50.306;8.566;2024-03-02T00:20:07;96611.00;;;9.90
15062;BMP180;7630;50.306;8.566;2024-03-02T00:24:21;96605.00;;;10.10
15062;BMP180;7630;50.306;8.566;2024-03-02T00:28:29;96598.00;;;10.20
15062;BMP180;7630;50.306;8.566;2024-03-02T00:32:30;96601.00;;;10.40
15062;BMP180;7630;50.306;8.566;2024-03-02T00:36:32;96599.00;;;10.40
15062;BMP180;7630;50.306;8.566;2024-03-02T00:40:33;96592.00;;;10.30
15062;BMP180;7630;50.306;8.566;2024-03-02T00:44:34;96600.00;;;10.10
15062;BMP180;7630;50.306;8.566;2024-03-02T00:48:36;96597.00;;;9.90
15062;BMP180;7630;50.306;8.566;2024-03-02T00:52:38;96602.00;;;9.70
15062;BMP180;7630;50.306;8.566;2024-03-02T00:56:41;96614.00;;;7.50
15062;BMP180;7630;50.306;8.566;2024-03-02T01:00:42;96607.00;;;6.10
15062;BMP180;7630;50.306;8.566;2024-03-02T01:04:43;96606.00;;;6.90
15062;BMP180;7630;50.306;8.566;2024-03-02T01:08:45;96593.00;;;7.70
15062;BMP180;7630;50.306;8.566;2024-03-02T01:12:47;96604.00;;;7.70
15062;BMP180;7630;50.306;8.566;2024-03-02T01:16:48;96621.00;;;8.60
15062;BMP180;7630;50.306;8.566;2024-03-02T01:20:50;96616.00;;;9.40
15062;BMP180;7630;50.306;8.566;2024-03-02T01:24:56;96619.00;;;9.90
15062;BMP180;7630;50.306;8.566;2024-03-02T01:28:57;96603.00;;;9.70
15062;BMP180;7630;50.306;8.566;2024-03-02T01:32:58;96608.00;;;9.10
15062;BMP180;7630;50.306;8.566;2024-03-02T01:37:01;96605.00;;;9.50
15062;BMP180;7630;50.306;8.566;2024-03-02T01:41:02;96592.00;;;9.50
15062;BMP180;7630;50.306;8.566;2024-03-02T01:45:05;96591.00;;;9.40
15062;BMP180;7630;50.306;8.566;2024-03-02T01:49:07;96587.00;;;9.50
15062;BMP180;7630;50.306;8.566;2024-03-02T01:53:08;96578.00;;;9.30
15062;BMP180;7630;50.306;8.566;2024-03-02T01:57:10;96580.00;;;9.40
15062;BMP180;7630;50.306;8.566;2024-03-02T02:01:11;96560.00;;;9.20
15062;BMP180;7630;50.306;8.566;2024-03-02T02:05:13;96560.00;;;7.70
15062;BMP180;7630;50.306;8.566;2024-03-02T02:09:14;96568.00;;;8.00
15062;BMP180;7630;50.306;8.566;2024-03-02T02:13:16;96552.00;;;7.70
15062;BMP180;7630;50.306;8.566;2024-03-02T02:17:17;96555.00;;;7.90
15062;BMP180;7630;50.306;8.566;2024-03-02T02:21:22;96550.00;;;9.20
15062;BMP180;7630;50.306;8.566;2024-03-02T02:25:24;96550.00;;;8.10
15062;BMP180;7630;50.306;8.566;2024-03-02T02:29:25;96548.00;;;7.40
15062;BMP180;7630;50.306;8.566;2024-03-02T02:33:26;96545.00;;;7.90
15062;BMP180;7630;50.306;8.566;2024-03-02T02:37:27;96542.00;;;8.00
15062;BMP180;7630;50.306;8.566;2024-03-02T02:41:29;96544.00;;;9.00
15062;BMP180;7630;50.306;8.566;2024-03-02T02:45:30;96535.00;;;8.70
15062;BMP180;7630;50.306;8.566;2024-03-02T02:49:31;96540.00;;;9.40
15062;BMP180;7630;50.306;8.566;2024-03-02T02:53:32;96540.00;;;9.40
15062;BMP180;7630;50.306;8.566;2024-03-02T02:57:34;96528.00;;;9.90
15062;BMP180;7630;50.306;8.566;2024-03-02T03:01:37;96528.00;;;8.70
15062;BMP180;7630;50.306;8.566;2024-03-02T03:05:38;96523.00;;;9.70
15062;BMP180;7630;50.306;8.566;2024-03-02T03:09:39;96521.00;;;9.60
15062;BMP180;7630;50.306;8.566;2024-03-02T03:13:41;96519.00;;;9.70
15062;BMP180;7630;50.306;8.566;2024-03-02T03:17:42;96515.00;;;9.70
15062;BMP180;7630;50.306;8.566;2024-03-02T03:21:45;96519.00;;;9.40
15062;BMP180;7630;50.306;8.566;2024-03-02T03:25:46;96516.00;;;8.80
15062;BMP180;7630;50.306;8.566;2024-03-02T03:29:47;96397.00;;;9.40
15062;BMP180;7630;50.306;8.566;2024-03-02T03:33:48;96517.00;;;9.00
15062;BMP180;7630;50.306;8.566;2024-03-02T03:37:50;96510.00;;;9.50
15062;BMP180;7630;50.306;8.566;2024-03-02T03:41:51;96519.00;;;9.50
15062;BMP180;7630;50.306;8.566;2024-03-02T03:45:52;96509.00;;;9.10
15062;BMP180;7630;50.306;8.566;2024-03-02T03:49:53;96515.00;;;9.40
15062;BMP180;7630;50.306;8.566;2024-03-02T03:53:54;96528.00;;;9.00
15062;BMP180;7630;50.306;8.566;2024-03-02T03:57:55;96392.00;;;8.70
15062;BMP180;7630;50.306;8.566;2024-03-02T04:01:56;96529.00;;;9.00
15062;BMP180;7630;50.306;8.566;2024-03-02T04:05:57;96522.00;;;9.00
15062;BMP180;7630;50.306;8.566;2024-03-02T04:09:58;96522.00;;;9.30
15062;BMP180;7630;50.306;8.566;2024-03-02T04:13:59;96521.00;;;9.20
15062;BMP180;7630;50.306;8.566;2024-03-02T04:18:01;96512.00;;;8.60
15062;BMP180;7630;50.306;8.566;2024-03-02T04:22:02;96516.00;;;8.60
15062;BMP180;7630;50.306;8.566;2024-03-02T04:26:06;96522.00;;;8.90
15062;BMP180;7630;50.306;8.566;2024-03-02T04:30:07;96523.00;;;9.30
15062;BMP180;7630;50.306;8.566;2024-03-02T04:34:08;96519.00;;;9.20
15062;BMP180;7630;50.306;8.566;2024-03-02T04:38:09;96513.00;;;9.10
15062;BMP180;7630;50.306;8.566;2024-03-02T04:42:10;96519.00;;;9.20
15062;BMP180;7630;50.306;8.566;2024-03-02T04:46:12;96523.00;;;8.90
15062;BMP180;7630;50.306;8.566;2024-03-02T04:50:13;96514.00;;;7.50
15062;BMP180;7630;50.306;8.566;2024-03-02T04:54:14;96530.00;;;8.90
15062;BMP180;7630;50.306;8.566;2024-03-02T04:58:16;96523.00;;;9.10
15062;BMP180;7630;50.306;8.566;2024-03-02T05:02:17;96534.00;;;9.40
15062;BMP180;7630;50.306;8.566;2024-03-02T05:06:18;96529.00;;;9.30
15062;BMP180;7630;50.306;8.566;2024-03-02T05:10:20;96542.00;;;9.30
15062;BMP180;7630;50.306;8.566;2024-03-02T05:14:21;96540.00;;;9.30
15062;BMP180;7630;50.306;8.566;2024-03-02T05:18:22;96530.00;;;9.10
15062;BMP180;7630;50.306;8.566;2024-03-02T05:22:24;96538.00;;;9.40
15062;BMP180;7630;50.306;8.566;2024-03-02T05:26:25;96549.00;;;9.30
15062;BMP180;7630;50.306;8.566;2024-03-02T05:30:27;96433.00;;;9.00
15062;BMP180;7630;50.306;8.566;2024-03-02T05:34:29;96560.00;;;8.70
15062;BMP180;7630;50.306;8.566;2024-03-02T05:38:32;96570.00;;;8.50
15062;BMP180;7630;50.306;8.566;2024-03-02T05:42:34;96558.00;;;8.60
15062;BMP180;7630;50.306;8.566;2024-03-02T05:46:35;96570.00;;;8.50
15062;BMP180;7630;50.306;8.566;2024-03-02T05:50:38;96585.00;;;8.40
15062;BMP180;7630;50.306;8.566;2024-03-02T05:54:39;96573.00;;;8.80
15062;BMP180;7630;50.306;8.566;2024-03-02T05:58:40;96575.00;;;9.10
15062;BMP180;7630;50.306;8.566;2024-03-02T06:03:00;96589.00;;;9.20
15062;BMP180;7630;50.306;8.566;2024-03-02T06:07:01;96581.00;;;9.10
15062;BMP180;7630;50.306;8.566;2024-03-02T06:11:02;96584.00;;;8.70
15062;BMP180;7630;50.306;8.566;2024-03-02T06:15:04;96586.00;;;9.00
15062;BMP180;7630;50.306;8.566;2024-03-02T06:19:07;96589.00;;;9.10
15062;BMP180;7630;50.306;8.566;2024-03-02T06:23:08;96590.00;;;9.00
15062;BMP180;7630;50.306;8.566;2024-03-02T06:27:09;96588.00;;;9.70
15062;BMP180;7630;50.306;8.566;2024-03-02T06:31:11;96584.00;;;9.90
15062;BMP180;7630;50.306;8.566;2024-03-02T06:35:12;96588.00;;;9.90
15062;BMP180;7630;50.306;8.566;2024-03-02T06:39:13;96587.00;;;9.80
15062;BMP180;7630;50.306;8.566;2024-03-02T06:43:14;96596.00;;;9.70
15062;BMP180;7630;50.306;8.566;2024-03-02T06:47:15;96594.00;;;10.00
15062;BMP180;7630;50.306;8.566;2024-03-02T06:51:17;96598.00;;;9.90
15062;BMP180;7630;50.306;8.566;2024-03-02T06:55:19;96596.00;;;9.70
15062;BMP180;7630;50.306;8.566;2024-03-02T06:59:20;96610.00;;;9.90
15062;BMP180;7630;50.306;8.566;2024-03-02T07:03:21;96614.00;;;9.80
15062;BMP180;7630;50.306;8.566;2024-03-02T07:07:22;96619.00;;;9.70
15062;BMP180;7630;50.306;8.566;2024-03-02T07:11:23;96626.00;;;9.30
15062;BMP180;7630;50.306;8.566;2024-03-02T07:15:24;96629.00;;;8.70
15062;BMP180;7630;50.306;8.566;2024-03-02T07:19:30;96617.00;;;8.50
15062;BMP180;7630;50.306;8.566;2024-03-02T07:23:31;96628.00;;;8.10
15062;BMP180;7630;50.306;8.566;2024-03-02T07:27:33;96634.00;;;9.00
15062;BMP180;7630;50.306;8.566;2024-03-02T07:31:36;96638.00;;;8.60
15062;BMP180;7630;50.306;8.566;2024-03-02T07:35:37;96642.00;;;7.50
15062;BMP180;7630;50.306;8.566;2024-03-02T07:39:38;96642.00;;;6.70
15062;BMP180;7630;50.306;8.566;2024-03-02T07:43:40;96638.00;;;7.80
15062;BMP180;7630;50.306;8.566;2024-03-02T07:47:41;96643.00;;;9.20
15062;BMP180;7630;50.306;8.566;2024-03-02T07:51:42;96649.00;;;9.40
15062;BMP180;7630;50.306;8.566;2024-03-02T07:55:44;96660.00;;;10.20
15062;BMP180;7630;50.306;8.566;2024-03-02T07:59:45;96660.00;;;11.60
15062;BMP180;7630;50.306;8.566;2024-03-02T08:03:46;96654.00;;;11.70
15062;BMP180;7630;50.306;8.566;2024-03-02T08:07:51;96663.00;;;12.10
15062;BMP180;7630;50.306;8.566;2024-03-02T08:11:54;96667.00;;;11.90
15062;BMP180;7630;50.306;8.566;2024-03-02T08:15:57;96665.00;;;11.70
15062;BMP180;7630;50.306;8.566;2024-03-02T08:19:59;96664.00;;;12.50
15062;BMP180;7630;50.306;8.566;2024-03-02T08:24:00;96661.00;;;10.40
15062;BMP180;7630;50.306;8.566;2024-03-02T08:28:02;96670.00;;;9.60
15062;BMP180;7630;50.306;8.566;2024-03-02T08:32:04;96670.00;;;11.80
15062;BMP180;7630;50.306;8.566;2024-03-02T08:36:06;96661.00;;;10.30
15062;BMP180;7630;50.306;8.566;2024-03-02T08:40:08;96654.00;;;10.30
15062;BMP180;7630;50.306;8.566;2024-03-02T08:44:09;96660.00;;;10.80
15062;BMP180;7630;50.306;8.566;2024-03-02T08:48:10;96678.00;;;11.20
15062;BMP180;7630;50.306;8.566;2024-03-02T08:52:12;96675.00;;;9.40
15062;BMP180;7630;50.306;8.566;2024-03-02T08:56:13;96672.00;;;10.90
15062;BMP180;7630;50.306;8.566;2024-03-02T09:00:17;96675.00;;;11.40
15062;BMP180;7630;50.306;8.566;2024-03-02T09:04:18;96675.00;;;12.50
15062;BMP180;7630;50.306;8.566;2024-03-02T09:08:19;96680.00;;;12.20
15062;BMP180;7630;50.306;8.566;2024-03-02T09:12:20;96683.00;;;12.40
15062;BMP180;7630;50.306;8.566;2024-03-02T09:16:22;96674.00;;;12.10
15062;BMP180;7630;50.306;8.566;2024-03-02T09:20:23;96679.00;;;12.40
15062;BMP180;7630;50.306;8.566;2024-03-02T09:24:24;96677.00;;;13.40
15062;BMP180;7630;50.306;8.566;2024-03-02T09:28:25;96663.00;;;14.10
15062;BMP180;7630;50.306;8.566;2024-03-02T09:32:26;96664.00;;;13.60
15062;BMP180;7630;50.306;8.566;2024-03-02T09:36:28;96666.00;;;14.70
15062;BMP180;7630;50.306;8.566;2024-03-02T09:40:29;96661.00;;;13.80
15062;BMP180;7630;50.306;8.566;2024-03-02T09:44:30;96665.00;;;14.00
15062;BMP180;7630;50.306;8.566;2024-03-02T09:48:32;96658.00;;;12.40
15062;BMP180;7630;50.306;8.566;2024-03-02T09:52:33;96663.00;;;13.30
15062;BMP180;7630;50.306;8.566;2024-03-02T09:56:34;96665.00;;;13.40
15062;BMP180;7630;50.306;8.566;2024-03-02T10:00:36;96671.00;;;14.00
15062;BMP180;7630;50.306;8.566;2024-03-02T10:04:38;96675.00;;;14.00
15062;BMP180;7630;50.306;8.566;2024-03-02T10:08:44;96668.00;;;14.50
15062;BMP180;7630;50.306;8.566;2024-03-02T10:12:45;96666.00;;;14.50
15062;BMP180;7630;50.306;8.566;2024-03-02T10:16:46;96671.00;;;14.60
15062;BMP180;7630;50.306;8.566;2024-03-02T10:20:47;96670.00;;;14.60
15062;BMP180;7630;50.306;8.566;2024-03-02T10:24:49;96669.00;;;14.60
15062;BMP180;7630;50.306;8.566;2024-03-02T10:28:52;96656.00;;;14.10
15062;BMP180;7630;50.306;8.566;2024-03-02T10:32:56;96662.00;;;12.40
15062;BMP180;7630;50.306;8.566;2024-03-02T10:36:58;96663.00;;;14.50
15062;BMP180;7630;50.306;8.566;2024-03-02T10:40:59;96668.00;;;15.10
15062;BMP180;7630;50.306;8.566;2024-03-02T10:45:01;96657.00;;;15.50
15062;BMP180;7630;50.306;8.566;2024-03-02T10:49:05;96659.00;;;15.20
15062;BMP180;7630;50.306;8.566;2024-03-02T10:53:08;96651.00;;;15.10
15062;BMP180;7630;50.306;8.566;2024-03-02T10:57:11;96646.00;;;15.90
15062;BMP180;7630;50.306;8.566;2024-03-02T11:01:13;96644.00;;;15.20
15062;BMP180;7630;50.306;8.566;2024-03-02T11:05:36;96637.00;;;15.30
15062;BMP180;7630;50.306;8.566;2024-03-02T11:09:28;96634.00;;;15.50
15062;BMP180;7630;50.306;8.566;2024-03-02T11:13:31;96625.00;;;16.60
15062;BMP180;7630;50.306;8.566;2024-03-02T11:17:33;96631.00;;;16.50
15062;BMP180;7630;50.306;8.566;2024-03-02T11:21:36;96634.00;;;16.60
15062;BMP180;7630;50.306;8.566;2024-03-02T11:25:38;96640.00;;;16.60
15062;BMP180;7630;50.306;8.566;2024-03-02T11:29:42;96640.00;;;15.80
15062;BMP180;7630;50.306;8.566;2024-03-02T11:33:43;96626.00;;;16.30
15062;BMP180;7630;50.306;8.566;2024-03-02T11:37:45;96623.00;;;16.90
15062;BMP180;7630;50.306;8.566;2024-03-02T11:41:46;96627.00;;;16.80
15062;BMP180;7630;50.306;8.566;2024-03-02T11:45:56;96626.00;;;17.00
15062;BMP180;7630;50.306;8.566;2024-03-02T11:49:53;96622.00;;;15.50
15062;BMP180;7630;50.306;8.566;2024-03-02T11:53:56;96628.00;;;16.20
15062;BMP180;7630;50.306;8.566;2024-03-02T11:57:58;96606.00;;;17.70
15062;BMP180;7630;50.306;8.566;2024-03-02T12:02:01;96599.00;;;18.10
15062;BMP180;7630;50.306;8.566;2024-03-02T12:06:04;96607.00;;;16.40
15062;BMP180;7630;50.306;8.566;2024-03-02T12:10:06;96600.00;;;17.40
15062;BMP180;7630;50.306;8.566;2024-03-02T12:14:11;96604.00;;;16.40
15062;BMP180;7630;50.306;8.566;2024-03-02T12:18:13;96594.00;;;15.70
15062;BMP180;7630;50.306;8.566;2024-03-02T12:22:15;96596.00;;;17.50
15062;BMP180;7630;50.306;8.566;2024-03-02T12:26:18;96590.00;;;17.70
15062;BMP180;7630;50.306;8.566;2024-03-02T12:30:21;96589.00;;;17.80
15062;BMP180;7630;50.306;8.566;2024-03-02T12:34:22;96588.00;;;17.30
15062;BMP180;7630;50.306;8.566;2024-03-02T12:38:24;96579.00;;;17.70
15062;BMP180;7630;50.306;8.566;2024-03-02T12:42:27;96568.00;;;16.70
15062;BMP180;7630;50.306;8.566;2024-03-02T12:46:28;96571.00;;;17.60
15062;BMP180;7630;50.306;8.566;2024-03-02T12:50:30;96572.00;;;17.40
15062;BMP180;7630;50.306;8.566;2024-03-02T12:54:32;96564.00;;;16.60
15062;BMP180;7630;50.306;8.566;2024-03-02T12:58:42;96552.00;;;17.60
15062;BMP180;7630;50.306;8.566;2024-03-02T13:02:43;96557.00;;;15.50
15062;BMP180;7630;50.306;8.566;2024-03-02T13:06:45;96558.00;;;17.20
15062;BMP180;7630;50.306;8.566;2024-03-02T13:10:46;96555.00;;;17.30
15062;BMP180;7630;50.306;8.566;2024-03-02T13:14:53;96545.00;;;17.90
15062;BMP180;7630;50.306;8.566;2024-03-02T13:18:55;96553.00;;;17.70
15062;BMP180;7630;50.306;8.566;2024-03-02T13:22:57;96561.00;;;17.60
15062;BMP180;7630;50.306;8.566;2024-03-02T13:26:58;96560.00;;;18.10
15062;BMP180;7630;50.306;8.566;2024-03-02T13:31:00;96558.00;;;17.10
15062;BMP180;7630;50.306;8.566;2024-03-02T13:35:02;96549.00;;;18.40
15062;BMP180;7630;50.306;8.566;2024-03-02T13:39:04;96549.00;;;18.40
15062;BMP180;7630;50.306;8.566;2024-03-02T13:43:06;96549.00;;;18.70
15062;BMP180;7630;50.306;8.566;2024-03-02T13:47:08;96545.00;;;19.80
15062;BMP180;7630;50.306;8.566;2024-03-02T13:51:09;96545.00;;;18.20
15062;BMP180;7630;50.306;8.566;2024-03-02T13:55:10;96548.00;;;19.20
15062;BMP180;7630;50.306;8.566;2024-03-02T13:59:11;96537.00;;;19.20
15062;BMP180;7630;50.306;8.566;2024-03-02T14:03:13;96538.00;;;15.90
15062;BMP180;7630;50.306;8.566;2024-03-02T14:07:14;96537.00;;;17.10
15062;BMP180;7630;50.306;8.566;2024-03-02T14:11:15;96529.00;;;16.90
15062;BMP180;7630;50.306;8.566;2024-03-02T14:15:17;96531.00;;;16.50
15062;BMP180;7630;50.306;8.566;2024-03-02T14:19:20;96519.00;;;17.70
15062;BMP180;7630;50.306;8.566;2024-03-02T14:23:22;96514.00;;;15.30
15062;BMP180;7630;50.306;8.566;2024-03-02T14:27:23;96506.00;;;15.70
15062;BMP180;7630;50.306;8.566;2024-03-02T14:31:27;96511.00;;;15.10
15062;BMP180;7630;50.306;8.566;2024-03-02T14:35:28;96516.00;;;15.10
15062;BMP180;7630;50.306;8.566;2024-03-02T14:39:29;96512.00;;;14.10
15062;BMP180;7630;50.306;8.566;2024-03-02T14:43:33;96510.00;;;13.50
15062;BMP180;7630;50.306;8.566;2024-03-02T14:47:34;96501.00;;;13.40
15062;BMP180;7630;50.306;8.566;2024-03-02T14:51:36;96499.00;;;15.80
15062;BMP180;7630;50.306;8.566;2024-03-02T14:55:37;96505.00;;;16.30
15062;BMP180;7630;50.306;8.566;2024-03-02T14:59:38;96497.00;;;16.40
15062;BMP180;7630;50.306;8.566;2024-03-02T15:03:40;96491.00;;;15.80
15062;BMP180;7630;50.306;8.566;2024-03-02T15:07:41;96485.00;;;15.70
15062;BMP180;7630;50.306;8.566;2024-03-02T15:11:43;96474.00;;;16.70
15062;BMP180;7630;50.306;8.566;2024-03-02T15:15:45;96466.00;;;17.10
15062;BMP180;7630;50.306;8.566;2024-03-02T15:19:46;96472.00;;;17.20
15062;BMP180;7630;50.306;8.566;2024-03-02T15:23:48;96465.00;;;16.60
15062;BMP180;7630;50.306;8.566;2024-03-02T15:27:49;96463.00;;;15.40
15062;BMP180;7630;50.306;8.566;2024-03-02T15:31:50;96463.00;;;16.20
15062;BMP180;7630;50.306;8.566;2024-03-02T15:35:52;96453.00;;;15.60
15062;BMP180;7630;50.306;8.566;2024-03-02T15:39:53;96455.00;;;16.20
15062;BMP180;7630;50.306;8.566;2024-03-02T15:43:55;96460.00;;;14.70
15062;BMP180;7630;50.306;8.566;2024-03-02T15:47:56;96461.00;;;15.10
15062;BMP180;7630;50.306;8.566;2024-03-02T15:51:57;96456.00;;;15.30
15062;BMP180;7630;50.306;8.566;2024-03-02T15:56:00;96452.00;;;15.90
15062;BMP180;7630;50.306;8.566;2024-03-02T16:00:02;96452.00;;;14.60
15062;BMP180;7630;50.306;8.566;2024-03-02T16:04:05;96457.00;;;15.50
15062;BMP180;7630;50.306;8.566;2024-03-02T16:08:07;96452.00;;;14.80
15062;BMP180;7630;50.306;8.566;2024-03-02T16:12:08;96449.00;;;15.20
15062;BMP180;7630;50.306;8.566;2024-03-02T16:16:11;96444.00;;;16.30
15062;BMP180;7630;50.306;8.566;2024-03-02T16:20:12;96448.00;;;15.70
15062;BMP180;7630;50.306;8.566;2024-03-02T16:24:13;96443.00;;;15.50
15062;BMP180;7630;50.306;8.566;2024-03-02T16:28:14;96438.00;;;15.50
15062;BMP180;7630;50.306;8.566;2024-03-02T16:32:15;96442.00;;;15.50
15062;BMP180;7630;50.306;8.566;2024-03-02T16:36:17;96439.00;;;15.70
15062;BMP180;7630;50.306;8.566;2024-03-02T16:40:19;96430.00;;;16.00
15062;BMP180;7630;50.306;8.566;2024-03-02T16:44:20;96437.00;;;15.40
15062;BMP180;7630;50.306;8.566;2024-03-02T16:48:21;96445.00;;;15.40
15062;BMP180;7630;50.306;8.566;2024-03-02T16:52:22;96446.00;;;16.00
15062;BMP180;7630;50.306;8.566;2024-03-02T16:56:24;96444.00;;;15.60
15062;BMP180;7630;50.306;8.566;2024-03-02T17:00:25;96441.00;;;14.80
15062;BMP180;7630;50.306;8.566;2024-03-02T17:04:28;96455.00;;;15.20
15062;BMP180;7630;50.306;8.566;2024-03-02T17:08:29;96451.00;;;14.70
15062;BMP180;7630;50.306;8.566;2024-03-02T17:12:30;96454.00;;;15.10
15062;BMP180;7630;50.306;8.566;2024-03-02T17:16:31;96457.00;;;14.20
15062;BMP180;7630;50.306;8.566;2024-03-02T17:20:33;96452.00;;;13.80
15062;BMP180;7630;50.306;8.566;2024-03-02T17:24:34;96465.00;;;13.60
15062;BMP180;7630;50.306;8.566;2024-03-02T17:28:35;96462.00;;;13.60
15062;BMP180;7630;50.306;8.566;2024-03-02T17:32:36;96456.00;;;13.40
15062;BMP180;7630;50.306;8.566;2024-03-02T17:36:37;96457.00;;;13.20
15062;BMP180;7630;50.306;8.566;2024-03-02T17:40:38;96446.00;;;12.50
15062;BMP180;7630;50.306;8.566;2024-03-02T17:44:39;96454.00;;;12.60
15062;BMP180;7630;50.306;8.566;2024-03-02T17:48:40;96450.00;;;12.50
15062;BMP180;7630;50.306;8.566;2024-03-02T17:52:42;96448.00;;;12.10
15062;BMP180;7630;50.306;8.566;2024-03-02T17:56:43;96443.00;;;11.80
15062;BMP180;7630;50.306;8.566;2024-03-02T18:00:44;96451.00;;;12.20
15062;BMP180;7630;50.306;8.566;2024-03-02T18:04:47;96448.00;;;12.00
15062;BMP180;7630;50.306;8.566;2024-03-02T18:08:48;96456.00;;;12.10
15062;BMP180;7630;50.306;8.566;2024-03-02T18:12:50;96452.00;;;11.80
15062;BMP180;7630;50.306;8.566;2024-03-02T18:16:51;96445.00;;;11.30
15062;BMP180;7630;50.306;8.566;2024-03-02T18:20:52;96433.00;;;11.30
15062;BMP180;7630;50.306;8.566;2024-03-02T18:24:53;96428.00;;;10.90
15062;BMP180;7630;50.306;8.566;2024-03-02T18:28:55;96444.00;;;11.30
15062;BMP180;7630;50.306;8.566;2024-03-02T18:32:56;96428.00;;;11.20
15062;BMP180;7630;50.306;8.566;2024-03-02T18:36:57;96421.00;;;11.00
15062;BMP180;7630;50.306;8.566;2024-03-02T18:40:59;96416.00;;;11.00
15062;BMP180;7630;50.306;8.566;2024-03-02T18:45:00;96417.00;;;11.00
15062;BMP180;7630;50.306;8.566;2024-03-02T18:49:03;96414.00;;;10.80
15062;BMP180;7630;50.306;8.566;2024-03-02T18:53:05;96431.00;;;11.20
15062;BMP180;7630;50.306;8.566;2024-03-02T18:57:09;96417.00;;;11.00
15062;BMP180;7630;50.306;8.566;2024-03-02T19:01:10;96414.00;;;11.20
15062;BMP180;7630;50.306;8.566;2024-03-02T19:05:12;96416.00;;;11.70
15062;BMP180;7630;50.306;8.566;2024-03-02T19:09:13;96423.00;;;11.30
15062;BMP180;7630;50.306;8.566;2024-03-02T19:13:14;96423.00;;;11.80
15062;BMP180;7630;50.306;8.566;2024-03-02T19:17:15;96425.00;;;11.60
15062;BMP180;7630;50.306;8.566;2024-03-02T19:21:17;96426.00;;;11.60
15062;BMP180;7630;50.306;8.566;2024-03-02T19:25:18;96422.00;;;11.20
15062;BMP180;7630;50.306;8.566;2024-03-02T19:29:20;96410.00;;;10.80
15062;BMP180;7630;50.306;8.566;2024-03-02T19:33:23;96409.00;;;10.70
15062;BMP180;7630;50.306;8.566;2024-03-02T19:37:25;96403.00;;;10.80
15062;BMP180;7630;50.306;8.566;2024-03-02T19:41:26;96399.00;;;10.70
15062;BMP180;7630;50.306;8.566;2024-03-02T19:45:27;96405.00;;;11.10
15062;BMP180;7630;50.306;8.566;2024-03-02T19:49:28;96410.00;;;11.50
15062;BMP180;7630;50.306;8.566;2024-03-02T19:53:29;96403.00;;;11.30
15062;BMP180;7630;50.306;8.566;2024-03-02T19:57:30;96392.00;;;10.80
15062;BMP180;7630;50.306;8.566;2024-03-02T20:01:34;96394.00;;;11.80
15062;BMP180;7630;50.306;8.566;2024-03-02T20:05:35;96395.00;;;13.10
15062;BMP180;7630;50.306;8.566;2024-03-02T20:09:36;96398.00;;;11.80
15062;BMP180;7630;50.306;8.566;2024-03-02T20:13:38;96396.00;;;12.70
15062;BMP180;7630;50.306;8.566;2024-03-02T20:17:39;96394.00;;;12.70
15062;BMP180;7630;50.306;8.566;2024-03-02T20:21:40;96394.00;;;12.50
15062;BMP180;7630;50.306;8.566;2024-03-02T20:25:42;96403.00;;;13.00
15062;BMP180;7630;50.306;8.566;2024-03-02T20:29:44;96411.00;;;12.00
15062;BMP180;7630;50.306;8.566;2024-03-02T20:33:46;96404.00;;;13.10
15062;BMP180;7630;50.306;8.566;2024-03-02T20:37:47;96404.00;;;12.10
15062;BMP180;7630;50.306;8.566;2024-03-02T20:41:48;96398.00;;;12.00
15062;BMP180;7630;50.306;8.566;2024-03-02T20:45:51;96400.00;;;13.10
15062;BMP180;7630;50.306;8.566;2024-03-02T20:49:52;96409.00;;;12.40
15062;BMP180;7630;50.306;8.566;2024-03-02T20:53:53;96406.00;;;12.50
15062;BMP180;7630;50.306;8.566;2024-03-02T20:57:54;96406.00;;;12.30
15062;BMP180;7630;50.306;8.566;2024-03-02T21:01:55;96383.00;;;12.50
15062;BMP180;7630;50.306;8.566;2024-03-02T21:05:57;96396.00;;;12.50
15062;BMP180;7630;50.306;8.566;2024-03-02T21:09:58;96393.00;;;12.50
15062;BMP180;7630;50.306;8.566;2024-03-02T21:13:59;96396.00;;;11.70
15062;BMP180;7630;50.306;8.566;2024-03-02T21:18:01;96383.00;;;11.50
15062;BMP180;7630;50.306;8.566;2024-03-02T21:22:03;96283.00;;;12.20
15062;BMP180;7630;50.306;8.566;2024-03-02T21:26:06;96389.00;;;11.80
15062;BMP180;7630;50.306;8.566;2024-03-02T21:30:08;96384.00;;;11.20
15062;BMP180;7630;50.306;8.566;2024-03-02T21:34:09;96381.00;;;10.70
15062;BMP180;7630;50.306;8.566;2024-03-02T21:38:10;96384.00;;;11.60
15062;BMP180;7630;50.306;8.566;2024-03-02T21:42:11;96380.00;;;12.20
15062;BMP180;7630;50.306;8.566;2024-03-02T21:46:12;96374.00;;;12.70
15062;BMP180;7630;50.306;8.566;2024-03-02T21:50:14;96365.00;;;11.10
15062;BMP180;7630;50.306;8.566;2024-03-02T21:54:17;96363.00;;;10.30
15062;BMP180;7630;50.306;8.566;2024-03-02T21:58:18;96361.00;;;10.50
15062;BMP180;7630;50.306;8.566;2024-03-02T22:02:19;96354.00;;;10.70
15062;BMP180;7630;50.306;8.566;2024-03-02T22:06:20;96356.00;;;10.30
15062;BMP180;7630;50.306;8.566;2024-03-02T22:10:21;96351.00;;;11.90
15062;BMP180;7630;50.306;8.566;2024-03-02T22:14:22;96354.00;;;12.40
15062;BMP180;7630;50.306;8.566;2024-03-02T22:18:23;96362.00;;;12.40
15062;BMP180;7630;50.306;8.566;2024-03-02T22:22:24;96349.00;;;12.50
15062;BMP180;7630;50.306;8.566;2024-03-02T22:26:26;96346.00;;;11.60
15062;BMP180;7630;50.306;8.566;2024-03-02T22:30:27;96344.00;;;12.10
15062;BMP180;7630;50.306;8.566;2024-03-02T22:34:28;96350.00;;;12.40
15062;BMP180;7630;50.306;8.566;2024-03-02T22:38:29;96349.00;;;11.90
15062;BMP180;7630;50.306;8.566;2024-03-02T22:42:30;96352.00;;;12.10
15062;BMP180;7630;50.306;8.566;2024-03-02T22:46:33;96361.00;;;12.40
15062;BMP180;7630;50.306;8.566;2024-03-02T22:50:34;96366.00;;;13.00
15062;BMP180;7630;50.306;8.566;2024-03-02T22:54:35;96361.00;;;12.40
15062;BMP180;7630;50.306;8.566;2024-03-02T22:58:37;96348.00;;;11.90
15062;BMP180;7630;50.306;8.566;2024-03-02T23:02:39;96356.00;;;12.20
15062;BMP180;7630;50.306;8.566;2024-03-02T23:06:40;96349.00;;;11.90
15062;BMP180;7630;50.306;8.566;2024-03-02T23:10:41;96350.00;;;11.80
15062;BMP180;7630;50.306;8.566;2024-03-02T23:14:43;96337.00;;;11.10
15062;BMP180;7630;50.306;8.566;2024-03-02T23:18:44;96344.00;;;11.40
15062;BMP180;7630;50.306;8.566;2024-03-02T23:22:45;96344.00;;;11.70
15062;BMP180;7630;50.306;8.566;2024-03-02T23:26:47;96334.00;;;10.00
15062;BMP180;7630;50.306;8.566;2024-03-02T23:30:48;96334.00;;;11.30
15062;BMP180;7630;50.306;8.566;2024-03-02T23:34:49;96325.00;;;10.40
15062;BMP180;7630;50.306;8.566;2024-03-02T23:38:50;96347.00;;;11.30
15062;BMP180;7630;50.306;8.566;2024-03-02T23:42:51;96340.00;;;12.40